sensor_id;sensor_type;location;lat;lon;timestamp;temperature;humidity
79491;SHT31;68950;53.098;18.032;2023-04-30T00:02:10;18.93;52.91
79491;SHT31;68950;53.098;18.032;2023-04-30T00:04:37;18.93;52.90
79491;SHT31;68950;53.098;18.032;2023-04-30T00:07:04;18.92;52.90
79491;SHT31;68950;53.098;18.032;2023-04-30T00:09:31;18.93;52.90
79491;SHT31;68950;53.098;18.032;2023-04-30T00:11:57;18.92;52.91
79491;SHT31;68950;53.098;18.032;2023-04-30T00:14:24;18.91;52.90
79491;SHT31;68950;53.098;18.032;2023-04-30T00:16:51;18.91;52.92
79491;SHT31;68950;53.098;18.032;2023-04-30T00:19:17;18.90;52.91
79491;SHT31;68950;53.098;18.032;2023-04-30T00:21:44;18.90;52.90
79491;SHT31;68950;53.098;18.032;2023-04-30T00:24:11;18.89;52.90
79491;SHT31;68950;53.098;18.032;2023-04-30T00:26:37;18.89;52.92
79491;SHT31;68950;53.098;18.032;2023-04-30T00:29:04;18.88;52.92
79491;SHT31;68950;53.098;18.032;2023-04-30T00:31:30;18.87;52.95
79491;SHT31;68950;53.098;18.032;2023-04-30T00:33:57;18.87;52.94
79491;SHT31;68950;53.098;18.032;2023-04-30T00:36:24;18.87;52.96
79491;SHT31;68950;53.098;18.032;2023-04-30T00:38:50;18.86;52.95
79491;SHT31;68950;53.098;18.032;2023-04-30T00:41:17;18.86;52.98
79491;SHT31;68950;53.098;18.032;2023-04-30T00:43:44;18.85;52.95
79491;SHT31;68950;53.098;18.032;2023-04-30T00:46:12;18.85;52.95
79491;SHT31;68950;53.098;18.032;2023-04-30T00:48:38;18.85;52.98
79491;SHT31;68950;53.098;18.032;2023-04-30T00:51:05;18.85;52.99
79491;SHT31;68950;53.098;18.032;2023-04-30T00:53:32;18.84;52.98
79491;SHT31;68950;53.098;18.032;2023-04-30T00:56:00;18.84;53.00
79491;SHT31;68950;53.098;18.032;2023-04-30T00:58:27;18.82;53.00
79491;SHT31;68950;53.098;18.032;2023-04-30T01:00:55;18.84;53.00
79491;SHT31;68950;53.098;18.032;2023-04-30T01:03:22;18.82;52.99
79491;SHT31;68950;53.098;18.032;2023-04-30T01:05:49;18.82;52.99
79491;SHT31;68950;53.098;18.032;2023-04-30T01:08:15;18.81;53.00
79491;SHT31;68950;53.098;18.032;2023-04-30T01:14:02;18.80;53.00
79491;SHT31;68950;53.098;18.032;2023-04-30T01:17:05;18.78;53.00
79491;SHT31;68950;53.098;18.032;2023-04-30T01:19:44;18.79;53.00
79491;SHT31;68950;53.098;18.032;2023-04-30T01:30:50;18.77;53.00
79491;SHT31;68950;53.098;18.032;2023-04-30T01:33:17;18.77;53.00
79491;SHT31;68950;53.098;18.032;2023-04-30T01:48:04;18.73;53.01
79491;SHT31;68950;53.098;18.032;2023-04-30T01:51:08;18.71;53.03
79491;SHT31;68950;53.098;18.032;2023-04-30T01:54:02;18.72;53.01
79491;SHT31;68950;53.098;18.032;2023-04-30T01:56:48;18.71;53.02
79491;SHT31;68950;53.098;18.032;2023-04-30T01:59:40;18.69;53.02
79491;SHT31;68950;53.098;18.032;2023-04-30T02:02:08;18.70;53.03
79491;SHT31;68950;53.098;18.032;2023-04-30T02:04:35;18.70;53.01
79491;SHT31;68950;53.098;18.032;2023-04-30T02:07:02;18.69;53.05
79491;SHT31;68950;53.098;18.032;2023-04-30T02:09:28;18.70;53.06
79491;SHT31;68950;53.098;18.032;2023-04-30T02:11:55;18.69;53.06
79491;SHT31;68950;53.098;18.032;2023-04-30T02:14:23;18.68;53.03
79491;SHT31;68950;53.098;18.032;2023-04-30T02:16:51;18.68;53.05
79491;SHT31;68950;53.098;18.032;2023-04-30T02:19:17;18.67;53.05
79491;SHT31;68950;53.098;18.032;2023-04-30T02:21:44;18.66;53.06
79491;SHT31;68950;53.098;18.032;2023-04-30T02:24:10;18.67;53.07
79491;SHT31;68950;53.098;18.032;2023-04-30T02:26:37;18.65;53.03
79491;SHT31;68950;53.098;18.032;2023-04-30T02:29:03;18.65;53.08
79491;SHT31;68950;53.098;18.032;2023-04-30T02:31:30;18.65;53.06
79491;SHT31;68950;53.098;18.032;2023-04-30T02:33:57;18.65;53.04
79491;SHT31;68950;53.098;18.032;2023-04-30T02:36:23;18.64;53.06
79491;SHT31;68950;53.098;18.032;2023-04-30T02:38:50;18.63;53.08
79491;SHT31;68950;53.098;18.032;2023-04-30T02:41:16;18.62;53.08
79491;SHT31;68950;53.098;18.032;2023-04-30T02:43:43;18.62;53.07
79491;SHT31;68950;53.098;18.032;2023-04-30T02:46:09;18.61;53.06
79491;SHT31;68950;53.098;18.032;2023-04-30T02:48:36;18.61;53.06
79491;SHT31;68950;53.098;18.032;2023-04-30T02:51:02;18.60;53.08
79491;SHT31;68950;53.098;18.032;2023-04-30T02:53:29;18.59;53.07
79491;SHT31;68950;53.098;18.032;2023-04-30T02:55:56;18.60;53.08
79491;SHT31;68950;53.098;18.032;2023-04-30T02:58:24;18.60;53.08
79491;SHT31;68950;53.098;18.032;2023-04-30T03:00:51;18.59;53.07
79491;SHT31;68950;53.098;18.032;2023-04-30T03:03:18;18.58;53.08
79491;SHT31;68950;53.098;18.032;2023-04-30T03:05:44;18.57;53.07
79491;SHT31;68950;53.098;18.032;2023-04-30T03:08:11;18.57;53.10
79491;SHT31;68950;53.098;18.032;2023-04-30T03:10:38;18.56;53.10
79491;SHT31;68950;53.098;18.032;2023-04-30T03:13:04;18.57;53.09
79491;SHT31;68950;53.098;18.032;2023-04-30T03:15:31;18.55;53.09
79491;SHT31;68950;53.098;18.032;2023-04-30T03:17:58;18.55;53.10
79491;SHT31;68950;53.098;18.032;2023-04-30T03:20:25;18.55;53.10
79491;SHT31;68950;53.098;18.032;2023-04-30T03:22:51;18.54;53.10
79491;SHT31;68950;53.098;18.032;2023-04-30T03:25:18;18.54;53.10
79491;SHT31;68950;53.098;18.032;2023-04-30T03:27:44;18.53;53.10
79491;SHT31;68950;53.098;18.032;2023-04-30T03:30:11;18.54;53.10
79491;SHT31;68950;53.098;18.032;2023-04-30T03:32:38;18.53;53.10
79491;SHT31;68950;53.098;18.032;2023-04-30T03:35:05;18.54;53.10
79491;SHT31;68950;53.098;18.032;2023-04-30T03:37:33;18.54;53.10
79491;SHT31;68950;53.098;18.032;2023-04-30T03:40:00;18.53;53.10
79491;SHT31;68950;53.098;18.032;2023-04-30T03:42:26;18.53;53.10
79491;SHT31;68950;53.098;18.032;2023-04-30T03:44:53;18.54;53.10
79491;SHT31;68950;53.098;18.032;2023-04-30T03:47:19;18.54;53.10
79491;SHT31;68950;53.098;18.032;2023-04-30T03:49:46;18.53;53.10
79491;SHT31;68950;53.098;18.032;2023-04-30T03:52:20;18.52;53.10
79491;SHT31;68950;53.098;18.032;2023-04-30T03:54:47;18.54;53.10
79491;SHT31;68950;53.098;18.032;2023-04-30T03:57:13;18.53;53.10
79491;SHT31;68950;53.098;18.032;2023-04-30T03:59:40;18.54;53.10
79491;SHT31;68950;53.098;18.032;2023-04-30T04:02:07;18.54;53.10
79491;SHT31;68950;53.098;18.032;2023-04-30T04:04:34;18.53;53.10
79491;SHT31;68950;53.098;18.032;2023-04-30T04:07:00;18.54;53.10
79491;SHT31;68950;53.098;18.032;2023-04-30T04:09:28;18.52;53.10
79491;SHT31;68950;53.098;18.032;2023-04-30T04:11:55;18.54;53.11
79491;SHT31;68950;53.098;18.032;2023-04-30T04:14:23;18.54;53.10
79491;SHT31;68950;53.098;18.032;2023-04-30T04:16:49;18.55;53.10
79491;SHT31;68950;53.098;18.032;2023-04-30T04:19:16;18.54;53.10
79491;SHT31;68950;53.098;18.032;2023-04-30T04:21:42;18.55;53.10
79491;SHT31;68950;53.098;18.032;2023-04-30T04:24:09;18.55;53.10
79491;SHT31;68950;53.098;18.032;2023-04-30T04:26:36;18.55;53.10
79491;SHT31;68950;53.098;18.032;2023-04-30T04:29:03;18.56;53.11
79491;SHT31;68950;53.098;18.032;2023-04-30T04:31:30;18.56;53.10
79491;SHT31;68950;53.098;18.032;2023-04-30T04:33:58;18.56;53.10
79491;SHT31;68950;53.098;18.032;2023-04-30T04:36:27;18.56;53.10
79491;SHT31;68950;53.098;18.032;2023-04-30T04:38:55;18.56;53.10
79491;SHT31;68950;53.098;18.032;2023-04-30T04:41:30;18.57;53.10
79491;SHT31;68950;53.098;18.032;2023-04-30T04:43:58;18.57;53.10
79491;SHT31;68950;53.098;18.032;2023-04-30T04:46:26;18.56;53.10
79491;SHT31;68950;53.098;18.032;2023-04-30T04:48:54;18.57;53.11
79491;SHT31;68950;53.098;18.032;2023-04-30T04:51:21;18.57;53.10
79491;SHT31;68950;53.098;18.032;2023-04-30T04:53:48;18.58;53.10
79491;SHT31;68950;53.098;18.032;2023-04-30T04:56:14;18.59;53.10
79491;SHT31;68950;53.098;18.032;2023-04-30T04:58:41;18.59;53.10
79491;SHT31;68950;53.098;18.032;2023-04-30T05:01:09;18.59;53.10
79491;SHT31;68950;53.098;18.032;2023-04-30T05:03:36;18.60;53.10
79491;SHT31;68950;53.098;18.032;2023-04-30T05:06:03;18.59;53.10
79491;SHT31;68950;53.098;18.032;2023-04-30T05:08:30;18.60;53.10
79491;SHT31;68950;53.098;18.032;2023-04-30T05:10:57;18.60;53.10
79491;SHT31;68950;53.098;18.032;2023-04-30T05:13:24;18.61;53.09
79491;SHT31;68950;53.098;18.032;2023-04-30T05:15:52;18.61;53.10
79491;SHT31;68950;53.098;18.032;2023-04-30T05:18:19;18.61;53.09
79491;SHT31;68950;53.098;18.032;2023-04-30T05:20:46;18.63;53.10
79491;SHT31;68950;53.098;18.032;2023-04-30T05:23:12;18.62;53.10
79491;SHT31;68950;53.098;18.032;2023-04-30T05:25:39;18.63;53.09
79491;SHT31;68950;53.098;18.032;2023-04-30T05:28:05;18.64;53.10
79491;SHT31;68950;53.098;18.032;2023-04-30T05:30:32;18.63;53.10
79491;SHT31;68950;53.098;18.032;2023-04-30T05:32:59;18.63;53.06
79491;SHT31;68950;53.098;18.032;2023-04-30T05:35:26;18.64;53.09
79491;SHT31;68950;53.098;18.032;2023-04-30T05:37:52;18.65;53.10
79491;SHT31;68950;53.098;18.032;2023-04-30T05:40:19;18.64;53.08
79491;SHT31;68950;53.098;18.032;2023-04-30T05:42:46;18.65;53.07
79491;SHT31;68950;53.098;18.032;2023-04-30T05:45:12;18.65;53.09
79491;SHT31;68950;53.098;18.032;2023-04-30T05:47:42;18.66;53.06
79491;SHT31;68950;53.098;18.032;2023-04-30T05:50:08;18.67;53.08
79491;SHT31;68950;53.098;18.032;2023-04-30T05:52:35;18.67;53.03
79491;SHT31;68950;53.098;18.032;2023-04-30T05:55:02;18.68;53.08
79491;SHT31;68950;53.098;18.032;2023-04-30T05:57:29;18.69;53.09
79491;SHT31;68950;53.098;18.032;2023-04-30T05:59:56;18.69;53.09
79491;SHT31;68950;53.098;18.032;2023-04-30T06:02:22;18.70;53.08
79491;SHT31;68950;53.098;18.032;2023-04-30T06:04:49;18.70;53.04
79491;SHT31;68950;53.098;18.032;2023-04-30T06:07:16;18.71;53.05
79491;SHT31;68950;53.098;18.032;2023-04-30T06:09:42;18.71;53.07
79491;SHT31;68950;53.098;18.032;2023-04-30T06:12:09;18.71;53.03
79491;SHT31;68950;53.098;18.032;2023-04-30T06:14:35;18.73;53.06
79491;SHT31;68950;53.098;18.032;2023-04-30T06:17:02;18.72;53.06
79491;SHT31;68950;53.098;18.032;2023-04-30T06:19:29;18.72;53.02
79491;SHT31;68950;53.098;18.032;2023-04-30T06:21:55;18.74;53.06
79491;SHT31;68950;53.098;18.032;2023-04-30T06:24:22;18.74;53.07
79491;SHT31;68950;53.098;18.032;2023-04-30T06:26:48;18.73;53.04
79491;SHT31;68950;53.098;18.032;2023-04-30T06:29:15;18.74;53.06
79491;SHT31;68950;53.098;18.032;2023-04-30T06:31:41;18.74;53.04
79491;SHT31;68950;53.098;18.032;2023-04-30T06:34:08;18.75;53.03
79491;SHT31;68950;53.098;18.032;2023-04-30T06:36:34;18.75;53.03
79491;SHT31;68950;53.098;18.032;2023-04-30T06:39:01;18.76;53.04
79491;SHT31;68950;53.098;18.032;2023-04-30T06:41:28;18.76;53.03
79491;SHT31;68950;53.098;18.032;2023-04-30T06:43:54;18.77;53.00
79491;SHT31;68950;53.098;18.032;2023-04-30T06:46:21;18.77;53.04
79491;SHT31;68950;53.098;18.032;2023-04-30T06:48:48;18.77;53.04
79491;SHT31;68950;53.098;18.032;2023-04-30T06:51:14;18.78;53.07
79491;SHT31;68950;53.098;18.032;2023-04-30T06:53:41;18.77;53.04
79491;SHT31;68950;53.098;18.032;2023-04-30T06:56:07;18.78;53.04
79491;SHT31;68950;53.098;18.032;2023-04-30T06:58:34;18.78;53.05
79491;SHT31;68950;53.098;18.032;2023-04-30T07:01:00;18.78;53.06
79491;SHT31;68950;53.098;18.032;2023-04-30T07:03:27;18.79;53.09
79491;SHT31;68950;53.098;18.032;2023-04-30T07:05:54;18.80;53.06
79491;SHT31;68950;53.098;18.032;2023-04-30T07:08:21;18.80;53.04
79491;SHT31;68950;53.098;18.032;2023-04-30T07:10:48;18.82;53.04
79491;SHT31;68950;53.098;18.032;2023-04-30T07:13:14;18.82;53.06
79491;SHT31;68950;53.098;18.032;2023-04-30T07:15:41;18.82;53.08
79491;SHT31;68950;53.098;18.032;2023-04-30T07:18:08;18.83;53.05
79491;SHT31;68950;53.098;18.032;2023-04-30T07:20:35;18.84;53.09
79491;SHT31;68950;53.098;18.032;2023-04-30T07:23:02;18.83;53.06
79491;SHT31;68950;53.098;18.032;2023-04-30T07:25:28;18.85;53.07
79491;SHT31;68950;53.098;18.032;2023-04-30T07:27:55;18.86;53.06
79491;SHT31;68950;53.098;18.032;2023-04-30T07:30:21;18.86;53.09
79491;SHT31;68950;53.098;18.032;2023-04-30T07:32:48;18.86;53.08
79491;SHT31;68950;53.098;18.032;2023-04-30T07:35:15;18.88;53.09
79491;SHT31;68950;53.098;18.032;2023-04-30T07:37:42;18.88;53.09
79491;SHT31;68950;53.098;18.032;2023-04-30T07:40:09;18.89;53.09
79491;SHT31;68950;53.098;18.032;2023-04-30T07:42:39;18.89;53.10
79491;SHT31;68950;53.098;18.032;2023-04-30T07:45:10;18.91;53.10
79491;SHT31;68950;53.098;18.032;2023-04-30T07:47:38;18.91;53.09
79491;SHT31;68950;53.098;18.032;2023-04-30T07:50:05;18.91;53.08
79491;SHT31;68950;53.098;18.032;2023-04-30T07:52:32;18.92;53.10
79491;SHT31;68950;53.098;18.032;2023-04-30T07:54:59;18.92;53.08
79491;SHT31;68950;53.098;18.032;2023-04-30T07:57:26;18.94;53.09
79491;SHT31;68950;53.098;18.032;2023-04-30T07:59:53;18.95;53.09
79491;SHT31;68950;53.098;18.032;2023-04-30T08:02:19;18.95;53.10
79491;SHT31;68950;53.098;18.032;2023-04-30T08:04:46;18.95;53.09
79491;SHT31;68950;53.098;18.032;2023-04-30T08:07:14;18.95;53.10
79491;SHT31;68950;53.098;18.032;2023-04-30T08:09:41;18.96;53.09
79491;SHT31;68950;53.098;18.032;2023-04-30T08:12:08;18.96;53.10
79491;SHT31;68950;53.098;18.032;2023-04-30T08:14:35;18.96;53.10
79491;SHT31;68950;53.098;18.032;2023-04-30T08:17:02;18.98;53.10
79491;SHT31;68950;53.098;18.032;2023-04-30T08:19:29;18.97;53.10
79491;SHT31;68950;53.098;18.032;2023-04-30T08:21:56;18.99;53.10
79491;SHT31;68950;53.098;18.032;2023-04-30T08:24:23;18.98;53.10
79491;SHT31;68950;53.098;18.032;2023-04-30T08:26:50;18.98;53.10
79491;SHT31;68950;53.098;18.032;2023-04-30T08:29:17;18.98;53.09
79491;SHT31;68950;53.098;18.032;2023-04-30T08:31:43;19.00;53.10
79491;SHT31;68950;53.098;18.032;2023-04-30T08:34:10;19.01;53.10
79491;SHT31;68950;53.098;18.032;2023-04-30T08:36:37;19.00;53.10
79491;SHT31;68950;53.098;18.032;2023-04-30T08:39:03;19.01;53.10
79491;SHT31;68950;53.098;18.032;2023-04-30T08:41:31;19.01;53.10
79491;SHT31;68950;53.098;18.032;2023-04-30T08:44:01;19.01;53.10
79491;SHT31;68950;53.098;18.032;2023-04-30T08:46:31;19.02;53.10
79491;SHT31;68950;53.098;18.032;2023-04-30T08:49:01;19.02;53.10
79491;SHT31;68950;53.098;18.032;2023-04-30T08:51:29;19.03;53.10
79491;SHT31;68950;53.098;18.032;2023-04-30T08:53:58;19.04;53.10
79491;SHT31;68950;53.098;18.032;2023-04-30T08:56:24;19.04;53.10
79491;SHT31;68950;53.098;18.032;2023-04-30T08:58:51;19.05;53.10
79491;SHT31;68950;53.098;18.032;2023-04-30T09:01:18;19.06;53.10
79491;SHT31;68950;53.098;18.032;2023-04-30T09:03:45;19.06;53.10
79491;SHT31;68950;53.098;18.032;2023-04-30T09:06:15;19.07;53.10
79491;SHT31;68950;53.098;18.032;2023-04-30T09:08:46;19.07;53.10
79491;SHT31;68950;53.098;18.032;2023-04-30T09:13:49;19.08;53.10
79491;SHT31;68950;53.098;18.032;2023-04-30T09:16:19;19.08;53.10
79491;SHT31;68950;53.098;18.032;2023-04-30T09:18:47;19.09;53.10
79491;SHT31;68950;53.098;18.032;2023-04-30T09:21:14;19.09;53.10
79491;SHT31;68950;53.098;18.032;2023-04-30T09:23:54;19.09;53.10
79491;SHT31;68950;53.098;18.032;2023-04-30T09:26:30;19.09;53.10
79491;SHT31;68950;53.098;18.032;2023-04-30T09:29:04;19.10;53.10
79491;SHT31;68950;53.098;18.032;2023-04-30T09:31:35;19.11;53.09
79491;SHT31;68950;53.098;18.032;2023-04-30T09:34:04;19.11;53.10
79491;SHT31;68950;53.098;18.032;2023-04-30T09:36:33;19.11;53.10
79491;SHT31;68950;53.098;18.032;2023-04-30T09:39:10;19.11;53.09
79491;SHT31;68950;53.098;18.032;2023-04-30T09:41:39;19.12;53.10
79491;SHT31;68950;53.098;18.032;2023-04-30T09:44:05;19.13;53.10
79491;SHT31;68950;53.098;18.032;2023-04-30T09:46:33;19.14;53.10
79491;SHT31;68950;53.098;18.032;2023-04-30T09:49:04;19.13;53.10
79491;SHT31;68950;53.098;18.032;2023-04-30T09:51:32;19.14;53.10
79491;SHT31;68950;53.098;18.032;2023-04-30T09:53:59;19.14;53.08
79491;SHT31;68950;53.098;18.032;2023-04-30T09:56:28;19.14;53.08
79491;SHT31;68950;53.098;18.032;2023-04-30T09:59:00;19.15;53.10
79491;SHT31;68950;53.098;18.032;2023-04-30T10:01:30;19.15;53.10
79491;SHT31;68950;53.098;18.032;2023-04-30T10:03:58;19.15;53.05
79491;SHT31;68950;53.098;18.032;2023-04-30T10:06:26;19.15;53.06
79491;SHT31;68950;53.098;18.032;2023-04-30T10:08:55;19.16;53.03
79491;SHT31;68950;53.098;18.032;2023-04-30T10:11:25;19.17;53.03
79491;SHT31;68950;53.098;18.032;2023-04-30T10:14:02;19.18;53.01
79491;SHT31;68950;53.098;18.032;2023-04-30T10:16:53;19.18;53.02
79491;SHT31;68950;53.098;18.032;2023-04-30T10:19:29;19.18;53.01
79491;SHT31;68950;53.098;18.032;2023-04-30T10:22:01;19.19;53.01
79491;SHT31;68950;53.098;18.032;2023-04-30T10:24:28;19.20;53.00
79491;SHT31;68950;53.098;18.032;2023-04-30T10:26:56;19.20;53.00
79491;SHT31;68950;53.098;18.032;2023-04-30T10:29:23;19.20;53.00
79491;SHT31;68950;53.098;18.032;2023-04-30T10:31:50;19.20;53.00
79491;SHT31;68950;53.098;18.032;2023-04-30T10:37:17;19.20;53.00
79491;SHT31;68950;53.098;18.032;2023-04-30T10:40:03;19.20;53.00
79491;SHT31;68950;53.098;18.032;2023-04-30T10:42:34;19.20;53.00
79491;SHT31;68950;53.098;18.032;2023-04-30T10:45:02;19.20;52.99
79491;SHT31;68950;53.098;18.032;2023-04-30T10:47:29;19.21;52.99
79491;SHT31;68950;53.098;18.032;2023-04-30T10:50:02;19.21;52.98
79491;SHT31;68950;53.098;18.032;2023-04-30T10:52:30;19.21;52.99
79491;SHT31;68950;53.098;18.032;2023-04-30T10:54:57;19.22;52.94
79491;SHT31;68950;53.098;18.032;2023-04-30T10:57:24;19.22;52.93
79491;SHT31;68950;53.098;18.032;2023-04-30T11:02:42;19.22;52.92
79491;SHT31;68950;53.098;18.032;2023-04-30T11:05:16;19.22;52.90
79491;SHT31;68950;53.098;18.032;2023-04-30T11:07:57;19.23;52.91
79491;SHT31;68950;53.098;18.032;2023-04-30T11:10:24;19.23;52.91
79491;SHT31;68950;53.098;18.032;2023-04-30T11:12:57;19.24;52.90
79491;SHT31;68950;53.098;18.032;2023-04-30T11:15:25;19.24;52.90
79491;SHT31;68950;53.098;18.032;2023-04-30T11:17:57;19.25;52.90
79491;SHT31;68950;53.098;18.032;2023-04-30T11:20:24;19.25;52.90
79491;SHT31;68950;53.098;18.032;2023-04-30T11:23:11;19.26;52.88
79491;SHT31;68950;53.098;18.032;2023-04-30T11:25:44;19.26;52.90
79491;SHT31;68950;53.098;18.032;2023-04-30T11:28:16;19.27;52.88
79491;SHT31;68950;53.098;18.032;2023-04-30T11:33:25;19.27;52.82
79491;SHT31;68950;53.098;18.032;2023-04-30T11:35:54;19.27;52.80
79491;SHT31;68950;53.098;18.032;2023-04-30T11:38:26;19.28;52.80
79491;SHT31;68950;53.098;18.032;2023-04-30T11:40:56;19.27;52.80
79491;SHT31;68950;53.098;18.032;2023-04-30T11:43:24;19.27;52.80
79491;SHT31;68950;53.098;18.032;2023-04-30T11:48:33;19.28;52.80
79491;SHT31;68950;53.098;18.032;2023-04-30T11:51:25;19.28;52.79
79491;SHT31;68950;53.098;18.032;2023-04-30T11:53:52;19.29;52.76
79491;SHT31;68950;53.098;18.032;2023-04-30T11:56:19;19.30;52.74
79491;SHT31;68950;53.098;18.032;2023-04-30T11:58:47;19.31;52.75
79491;SHT31;68950;53.098;18.032;2023-04-30T12:01:15;19.31;52.70
79491;SHT31;68950;53.098;18.032;2023-04-30T12:03:44;19.31;52.70
79491;SHT31;68950;53.098;18.032;2023-04-30T12:06:26;19.32;52.70
79491;SHT31;68950;53.098;18.032;2023-04-30T12:08:54;19.31;52.70
79491;SHT31;68950;53.098;18.032;2023-04-30T12:11:23;19.31;52.70
79491;SHT31;68950;53.098;18.032;2023-04-30T12:13:53;19.33;52.68
79491;SHT31;68950;53.098;18.032;2023-04-30T12:19:16;19.32;52.67
79491;SHT31;68950;53.098;18.032;2023-04-30T12:21:46;19.32;52.65
79491;SHT31;68950;53.098;18.032;2023-04-30T12:24:14;19.31;52.61
79491;SHT31;68950;53.098;18.032;2023-04-30T12:26:43;19.32;52.61
79491;SHT31;68950;53.098;18.032;2023-04-30T12:29:14;19.32;52.60
79491;SHT31;68950;53.098;18.032;2023-04-30T12:31:43;19.31;52.60
79491;SHT31;68950;53.098;18.032;2023-04-30T12:34:14;19.33;52.59
79491;SHT31;68950;53.098;18.032;2023-04-30T12:36:41;19.33;52.60
79491;SHT31;68950;53.098;18.032;2023-04-30T12:39:09;19.33;52.57
79491;SHT31;68950;53.098;18.032;2023-04-30T12:44:13;19.33;52.51
79491;SHT31;68950;53.098;18.032;2023-04-30T12:46:40;19.33;52.51
79491;SHT31;68950;53.098;18.032;2023-04-30T12:49:08;19.33;52.50
79491;SHT31;68950;53.098;18.032;2023-04-30T12:51:36;19.35;52.51
79491;SHT31;68950;53.098;18.032;2023-04-30T12:54:06;19.34;52.50
79491;SHT31;68950;53.098;18.032;2023-04-30T12:56:33;19.35;52.49
79491;SHT31;68950;53.098;18.032;2023-04-30T12:59:00;19.36;52.46
79491;SHT31;68950;53.098;18.032;2023-04-30T13:01:27;19.36;52.48
79491;SHT31;68950;53.098;18.032;2023-04-30T13:03:53;19.37;52.41
79491;SHT31;68950;53.098;18.032;2023-04-30T13:06:21;19.37;52.40
79491;SHT31;68950;53.098;18.032;2023-04-30T13:08:48;19.38;52.41
79491;SHT31;68950;53.098;18.032;2023-04-30T13:11:15;19.38;52.40
79491;SHT31;68950;53.098;18.032;2023-04-30T13:13:42;19.40;52.40
79491;SHT31;68950;53.098;18.032;2023-04-30T13:16:08;19.39;52.40
79491;SHT31;68950;53.098;18.032;2023-04-30T13:18:35;19.40;52.35
79491;SHT31;68950;53.098;18.032;2023-04-30T13:21:02;19.41;52.36
79491;SHT31;68950;53.098;18.032;2023-04-30T13:23:29;19.41;52.31
79491;SHT31;68950;53.098;18.032;2023-04-30T13:25:55;19.41;52.30
79491;SHT31;68950;53.098;18.032;2023-04-30T13:28:22;19.42;52.30
79491;SHT31;68950;53.098;18.032;2023-04-30T13:30:49;19.43;52.30
79491;SHT31;68950;53.098;18.032;2023-04-30T13:33:15;19.43;52.30
79491;SHT31;68950;53.098;18.032;2023-04-30T13:35:42;19.43;52.28
79491;SHT31;68950;53.098;18.032;2023-04-30T13:38:08;19.44;52.27
79491;SHT31;68950;53.098;18.032;2023-04-30T13:40:35;19.44;52.23
79491;SHT31;68950;53.098;18.032;2023-04-30T13:43:01;19.46;52.21
79491;SHT31;68950;53.098;18.032;2023-04-30T13:45:29;19.48;52.21
79491;SHT31;68950;53.098;18.032;2023-04-30T13:47:55;19.49;52.20
79491;SHT31;68950;53.098;18.032;2023-04-30T13:50:22;19.51;52.20
79491;SHT31;68950;53.098;18.032;2023-04-30T13:52:49;19.52;52.20
79491;SHT31;68950;53.098;18.032;2023-04-30T13:55:16;19.54;52.18
79491;SHT31;68950;53.098;18.032;2023-04-30T13:57:42;19.57;52.20
79491;SHT31;68950;53.098;18.032;2023-04-30T14:00:09;19.60;52.19
79491;SHT31;68950;53.098;18.032;2023-04-30T14:02:37;19.63;52.17
79491;SHT31;68950;53.098;18.032;2023-04-30T14:05:04;19.69;52.12
79491;SHT31;68950;53.098;18.032;2023-04-30T14:07:31;19.75;52.12
79491;SHT31;68950;53.098;18.032;2023-04-30T14:09:58;19.82;52.11
79491;SHT31;68950;53.098;18.032;2023-04-30T14:12:25;19.94;52.13
79491;SHT31;68950;53.098;18.032;2023-04-30T14:14:51;20.09;52.11
79491;SHT31;68950;53.098;18.032;2023-04-30T14:17:18;20.29;52.11
79491;SHT31;68950;53.098;18.032;2023-04-30T14:19:45;20.54;52.10
79491;SHT31;68950;53.098;18.032;2023-04-30T14:22:12;20.82;52.10
79491;SHT31;68950;53.098;18.032;2023-04-30T14:24:38;21.05;52.12
79491;SHT31;68950;53.098;18.032;2023-04-30T14:27:05;21.27;52.15
79491;SHT31;68950;53.098;18.032;2023-04-30T14:29:32;21.48;52.10
79491;SHT31;68950;53.098;18.032;2023-04-30T14:31:58;21.69;52.11
79491;SHT31;68950;53.098;18.032;2023-04-30T14:34:26;21.89;52.10
79491;SHT31;68950;53.098;18.032;2023-04-30T14:36:53;22.06;52.10
79491;SHT31;68950;53.098;18.032;2023-04-30T14:39:20;22.19;52.04
79491;SHT31;68950;53.098;18.032;2023-04-30T14:41:46;22.31;51.97
79491;SHT31;68950;53.098;18.032;2023-04-30T14:44:13;22.38;51.90
79491;SHT31;68950;53.098;18.032;2023-04-30T14:46:39;22.42;51.85
79491;SHT31;68950;53.098;18.032;2023-04-30T14:49:06;22.46;51.74
79491;SHT31;68950;53.098;18.032;2023-04-30T14:51:33;22.49;51.69
79491;SHT31;68950;53.098;18.032;2023-04-30T14:54:00;22.47;51.59
79491;SHT31;68950;53.098;18.032;2023-04-30T14:56:27;22.39;51.50
79491;SHT31;68950;53.098;18.032;2023-04-30T14:58:54;22.29;51.38
79491;SHT31;68950;53.098;18.032;2023-04-30T15:01:21;22.18;51.28
79491;SHT31;68950;53.098;18.032;2023-04-30T15:03:47;22.09;51.19
79491;SHT31;68950;53.098;18.032;2023-04-30T15:06:14;22.00;51.09
79491;SHT31;68950;53.098;18.032;2023-04-30T15:08:41;21.90;51.00
79491;SHT31;68950;53.098;18.032;2023-04-30T15:11:07;21.82;50.94
79491;SHT31;68950;53.098;18.032;2023-04-30T15:13:35;21.72;50.84
79491;SHT31;68950;53.098;18.032;2023-04-30T15:16:02;21.61;50.74
79491;SHT31;68950;53.098;18.032;2023-04-30T15:18:30;21.53;50.67
79491;SHT31;68950;53.098;18.032;2023-04-30T15:20:58;21.45;50.60
79491;SHT31;68950;53.098;18.032;2023-04-30T15:23:24;21.38;50.50
79491;SHT31;68950;53.098;18.032;2023-04-30T15:25:52;21.33;50.43
79491;SHT31;68950;53.098;18.032;2023-04-30T15:28:18;21.30;50.40
79491;SHT31;68950;53.098;18.032;2023-04-30T15:30:45;21.26;50.33
79491;SHT31;68950;53.098;18.032;2023-04-30T15:33:12;21.25;50.29
79491;SHT31;68950;53.098;18.032;2023-04-30T15:35:38;21.23;50.21
79491;SHT31;68950;53.098;18.032;2023-04-30T15:38:06;21.23;50.18
79491;SHT31;68950;53.098;18.032;2023-04-30T15:40:34;21.23;50.16
79491;SHT31;68950;53.098;18.032;2023-04-30T15:43:02;21.23;50.10
79491;SHT31;68950;53.098;18.032;2023-04-30T15:45:31;21.23;50.06
79491;SHT31;68950;53.098;18.032;2023-04-30T15:47:58;21.25;50.02
79491;SHT31;68950;53.098;18.032;2023-04-30T15:50:28;21.25;50.00
79491;SHT31;68950;53.098;18.032;2023-04-30T15:52:55;21.27;49.99
79491;SHT31;68950;53.098;18.032;2023-04-30T15:55:21;21.29;49.94
79491;SHT31;68950;53.098;18.032;2023-04-30T15:57:49;21.31;49.91
79491;SHT31;68950;53.098;18.032;2023-04-30T16:00:16;21.32;49.90
79491;SHT31;68950;53.098;18.032;2023-04-30T16:02:43;21.33;49.86
79491;SHT31;68950;53.098;18.032;2023-04-30T16:05:10;21.35;49.84